createdAt,value
2019-01-30T00:00:12.630Z,988.01
2019-01-30T00:01:12.610Z,988.05
2019-01-30T00:02:12.585Z,988.08
2019-01-30T00:03:12.559Z,988.06
2019-01-30T00:04:12.537Z,988.02
2019-01-30T00:05:12.510Z,987.98
2019-01-30T00:06:12.488Z,987.99
2019-01-30T00:07:12.464Z,987.96
2019-01-30T00:08:12.441Z,987.98
2019-01-30T00:09:12.416Z,987.97
2019-01-30T00:10:12.394Z,987.97
2019-01-30T00:11:12.367Z,987.94
2019-01-30T00:12:12.348Z,987.93
2019-01-30T00:13:12.320Z,987.89
2019-01-30T00:14:12.297Z,987.9
2019-01-30T00:15:12.273Z,987.87
2019-01-30T00:16:12.251Z,987.86
2019-01-30T00:17:12.225Z,987.86
2019-01-30T00:18:12.202Z,987.82
2019-01-30T00:19:12.180Z,987.78
2019-01-30T00:20:12.154Z,987.74
2019-01-30T00:21:12.129Z,987.73
2019-01-30T00:22:12.107Z,987.73
2019-01-30T00:23:12.085Z,987.7
2019-01-30T00:24:12.058Z,987.72
2019-01-30T00:25:12.033Z,987.69
2019-01-30T00:26:12.016Z,987.68
2019-01-30T00:27:11.988Z,987.67
2019-01-30T00:28:11.964Z,987.69
2019-01-30T00:29:11.940Z,987.61
2019-01-30T00:30:11.947Z,987.61
2019-01-30T00:31:11.892Z,987.57
2019-01-30T00:32:11.868Z,987.59
2019-01-30T00:33:11.846Z,987.55
2019-01-30T00:34:11.824Z,987.53
2019-01-30T00:35:11.797Z,987.53
2019-01-30T00:36:11.776Z,987.48
2019-01-30T00:37:11.752Z,987.51
2019-01-30T00:38:11.730Z,987.48
2019-01-30T00:39:11.701Z,987.47
2019-01-30T00:40:11.679Z,987.46
2019-01-30T00:41:11.654Z,987.44
2019-01-30T00:42:11.630Z,987.41
2019-01-30T00:43:11.607Z,987.4
2019-01-30T00:44:11.584Z,987.38
2019-01-30T00:45:11.560Z,987.42
2019-01-30T00:46:11.551Z,987.37
2019-01-30T00:47:15.857Z,987.34
2019-01-30T00:48:11.487Z,987.32
2019-01-30T00:49:11.466Z,987.32
2019-01-30T00:50:11.443Z,987.28
2019-01-30T00:51:11.419Z,987.29
2019-01-30T00:52:11.394Z,987.27
2019-01-30T00:53:11.369Z,987.29
2019-01-30T00:54:11.348Z,987.27
2019-01-30T00:55:11.321Z,987.22
2019-01-30T00:56:11.303Z,987.21
2019-01-30T00:57:11.274Z,987.22
2019-01-30T00:58:11.252Z,987.21
2019-01-30T00:59:11.229Z,987.18
2019-01-30T01:00:14.471Z,987.18
2019-01-30T01:01:11.178Z,987.21
2019-01-30T01:02:11.156Z,987.19
2019-01-30T01:03:11.134Z,987.2
2019-01-30T01:04:11.113Z,987.19
2019-01-30T01:05:11.105Z,987.16
2019-01-30T01:06:11.060Z,987.2
2019-01-30T01:07:11.035Z,987.13
2019-01-30T01:08:11.215Z,987.21
2019-01-30T01:09:10.990Z,987.14
2019-01-30T01:10:10.972Z,987.12
2019-01-30T01:11:10.941Z,987.11
2019-01-30T01:12:10.919Z,987.13
2019-01-30T01:13:10.911Z,987.13
2019-01-30T01:14:10.870Z,987.09
2019-01-30T01:15:10.850Z,987.07
2019-01-30T01:16:10.823Z,987.05
2019-01-30T01:17:10.800Z,987.02
2019-01-30T01:18:10.777Z,987.06
2019-01-30T01:19:10.753Z,987
2019-01-30T01:20:10.732Z,987
2019-01-30T01:21:10.706Z,986.98
2019-01-30T01:22:10.682Z,986.94
2019-01-30T01:23:10.657Z,987.01
2019-01-30T01:24:10.638Z,986.95
2019-01-30T01:25:10.644Z,986.93
2019-01-30T01:26:10.585Z,986.94
2019-01-30T01:27:10.561Z,986.91
2019-01-30T01:28:10.537Z,986.94
2019-01-30T01:29:10.515Z,986.87
2019-01-30T01:30:10.516Z,986.87
2019-01-30T01:31:10.566Z,986.89
2019-01-30T01:32:10.444Z,986.91
2019-01-30T01:33:10.418Z,986.87
2019-01-30T01:34:10.395Z,986.87
2019-01-30T01:35:10.376Z,986.83
2019-01-30T01:36:10.349Z,986.87
2019-01-30T01:37:10.330Z,986.86
2019-01-30T01:38:10.299Z,986.9
2019-01-30T01:39:10.277Z,986.94
2019-01-30T01:40:10.253Z,986.93
2019-01-30T01:41:10.228Z,986.91
2019-01-30T01:42:10.212Z,986.85
2019-01-30T01:43:10.182Z,986.85
2019-01-30T01:44:10.163Z,986.86
2019-01-30T01:45:10.135Z,986.85
2019-01-30T01:46:10.366Z,986.81
2019-01-30T01:47:10.087Z,986.81
2019-01-30T01:48:10.062Z,986.78
2019-01-30T01:49:10.038Z,986.77
2019-01-30T01:50:10.013Z,986.75
2019-01-30T01:51:09.989Z,986.77
2019-01-30T01:52:09.964Z,986.7
2019-01-30T01:53:09.946Z,986.7
2019-01-30T01:54:09.920Z,986.67
2019-01-30T01:55:09.894Z,986.69
2019-01-30T01:56:09.871Z,986.7
2019-01-30T01:57:09.853Z,986.68
2019-01-30T01:58:09.822Z,986.63
2019-01-30T01:59:09.799Z,986.67
2019-01-30T02:00:09.773Z,986.66
2019-01-30T02:01:09.750Z,986.65
2019-01-30T02:02:09.726Z,986.65
2019-01-30T02:03:09.704Z,986.63
2019-01-30T02:04:09.679Z,986.59
2019-01-30T02:05:09.656Z,986.62
2019-01-30T02:06:09.630Z,986.61
2019-01-30T02:07:09.609Z,986.57
2019-01-30T02:08:09.584Z,986.55
2019-01-30T02:09:09.560Z,986.56
2019-01-30T02:10:09.535Z,986.51
2019-01-30T02:11:09.511Z,986.5
2019-01-30T02:12:09.490Z,986.49
2019-01-30T02:13:09.463Z,986.49
2019-01-30T02:14:09.441Z,986.46
2019-01-30T02:15:09.421Z,986.45
2019-01-30T02:16:09.392Z,986.45
2019-01-30T02:17:09.367Z,986.4
2019-01-30T02:18:09.343Z,986.36
2019-01-30T02:19:09.320Z,986.32
2019-01-30T02:20:09.298Z,986.3
2019-01-30T02:21:09.271Z,986.27
2019-01-30T02:22:09.248Z,986.26
2019-01-30T02:23:09.225Z,986.25
2019-01-30T02:24:09.201Z,986.21
2019-01-30T02:25:09.174Z,986.18
2019-01-30T02:26:09.151Z,986.16
2019-01-30T02:27:09.127Z,986.11
2019-01-30T02:28:09.103Z,986.15
2019-01-30T02:29:09.080Z,986.1
2019-01-30T02:30:09.058Z,986.11
2019-01-30T02:31:09.033Z,986.06
2019-01-30T02:32:09.008Z,986.08
2019-01-30T02:33:08.984Z,986.02
2019-01-30T02:34:08.962Z,986.04
2019-01-30T02:35:08.938Z,986.02
2019-01-30T02:36:08.911Z,986.01
2019-01-30T02:37:08.890Z,986
2019-01-30T02:38:08.862Z,985.99
2019-01-30T02:39:08.838Z,985.96
2019-01-30T02:40:08.816Z,985.95
2019-01-30T02:41:08.790Z,985.93
2019-01-30T02:42:08.767Z,985.91
2019-01-30T02:43:08.742Z,985.92
2019-01-30T02:44:08.717Z,985.94
2019-01-30T02:45:08.694Z,985.94
2019-01-30T02:46:08.671Z,985.91
2019-01-30T02:47:08.896Z,985.89
2019-01-30T02:48:08.622Z,985.86
2019-01-30T02:49:08.600Z,985.86
2019-01-30T02:50:08.574Z,985.86
2019-01-30T02:51:08.553Z,985.82
2019-01-30T02:52:08.527Z,985.8
2019-01-30T02:53:08.504Z,985.82
2019-01-30T02:54:08.478Z,985.82
2019-01-30T02:55:08.456Z,985.79
2019-01-30T02:56:08.431Z,985.81
2019-01-30T02:57:08.405Z,985.79
2019-01-30T02:58:08.381Z,985.75
2019-01-30T02:59:08.360Z,985.75
2019-01-30T03:00:08.354Z,985.73
2019-01-30T03:01:08.314Z,985.76
2019-01-30T03:02:08.389Z,985.71
2019-01-30T03:03:08.265Z,985.71
2019-01-30T03:04:08.236Z,985.71
2019-01-30T03:05:08.212Z,985.7
2019-01-30T03:06:08.189Z,985.68
2019-01-30T03:07:08.163Z,985.61
2019-01-30T03:08:08.343Z,985.63
2019-01-30T03:09:08.115Z,985.68
2019-01-30T03:10:08.095Z,985.66
2019-01-30T03:11:08.071Z,985.63
2019-01-30T03:12:08.045Z,985.68
2019-01-30T03:13:08.023Z,985.64
2019-01-30T03:14:08.000Z,985.61
2019-01-30T03:15:07.972Z,985.64
2019-01-30T03:16:07.948Z,985.65
2019-01-30T03:17:07.929Z,985.63
2019-01-30T03:18:07.906Z,985.62
2019-01-30T03:19:07.885Z,985.63
2019-01-30T03:20:07.855Z,985.59
2019-01-30T03:21:07.835Z,985.59
2019-01-30T03:22:07.838Z,985.58
2019-01-30T03:23:07.781Z,985.55
2019-01-30T03:24:07.757Z,985.5
2019-01-30T03:25:07.733Z,985.56
2019-01-30T03:26:07.709Z,985.54
2019-01-30T03:27:07.683Z,985.51
2019-01-30T03:28:07.660Z,985.49
2019-01-30T03:29:07.636Z,985.52
2019-01-30T03:30:07.614Z,985.53
2019-01-30T03:31:17.426Z,985.49
2019-01-30T03:32:07.565Z,985.48
2019-01-30T03:33:07.541Z,985.49
2019-01-30T03:34:07.519Z,985.46
2019-01-30T03:35:07.494Z,985.49
2019-01-30T03:36:07.468Z,985.48
2019-01-30T03:37:07.448Z,985.46
2019-01-30T03:38:07.421Z,985.48
2019-01-30T03:39:07.395Z,985.44
2019-01-30T03:40:07.373Z,985.46
2019-01-30T03:41:07.347Z,985.44
2019-01-30T03:42:07.325Z,985.42
2019-01-30T03:43:07.300Z,985.44
2019-01-30T03:44:07.277Z,985.43
2019-01-30T03:45:07.259Z,985.44
2019-01-30T03:46:07.231Z,985.48
2019-01-30T03:47:07.208Z,985.43
2019-01-30T03:48:07.179Z,985.46
2019-01-30T03:49:07.155Z,985.41
2019-01-30T03:50:07.133Z,985.44
2019-01-30T03:51:07.109Z,985.43
2019-01-30T03:52:07.082Z,985.42
2019-01-30T03:53:07.061Z,985.43
2019-01-30T03:54:07.036Z,985.39
2019-01-30T03:55:07.011Z,985.39
2019-01-30T03:56:06.986Z,985.4
2019-01-30T03:57:06.962Z,985.34
2019-01-30T03:58:06.939Z,985.34
2019-01-30T03:59:06.916Z,985.32
2019-01-30T04:00:06.894Z,985.32
2019-01-30T04:01:06.868Z,985.29
2019-01-30T04:02:06.843Z,985.3
2019-01-30T04:03:06.818Z,985.3
2019-01-30T04:04:06.796Z,985.26
2019-01-30T04:05:06.770Z,985.27
2019-01-30T04:06:06.752Z,985.24
2019-01-30T04:07:06.724Z,985.24
2019-01-30T04:08:06.704Z,985.21
2019-01-30T04:09:06.675Z,985.27
2019-01-30T04:10:06.654Z,985.23
2019-01-30T04:11:06.627Z,985.25
2019-01-30T04:12:06.601Z,985.25
2019-01-30T04:13:06.582Z,985.23
2019-01-30T04:14:06.555Z,985.26
2019-01-30T04:15:06.529Z,985.26
2019-01-30T04:16:06.506Z,985.28
2019-01-30T04:17:06.485Z,985.23
2019-01-30T04:18:06.459Z,985.22
2019-01-30T04:19:06.433Z,985.23
2019-01-30T04:20:06.413Z,985.21
2019-01-30T04:21:06.385Z,985.22
2019-01-30T04:22:06.365Z,985.17
2019-01-30T04:23:06.349Z,985.17
2019-01-30T04:24:06.314Z,985.14
2019-01-30T04:25:06.290Z,985.16
2019-01-30T04:26:06.266Z,985.19
2019-01-30T04:27:06.242Z,985.18
2019-01-30T04:28:06.468Z,985.15
2019-01-30T04:29:06.194Z,985.18
2019-01-30T04:30:06.169Z,985.18
2019-01-30T04:31:06.145Z,985.17
2019-01-30T04:32:06.121Z,985.14
2019-01-30T04:33:06.114Z,985.19
2019-01-30T04:34:06.074Z,985.14
2019-01-30T04:35:06.049Z,985.16
2019-01-30T04:36:06.025Z,985.14
2019-01-30T04:37:06.003Z,985.15
2019-01-30T04:38:05.978Z,985.13
2019-01-30T04:39:05.955Z,985.13
2019-01-30T04:40:05.929Z,985.08
2019-01-30T04:41:05.908Z,985.08
2019-01-30T04:42:05.881Z,985.09
2019-01-30T04:43:05.857Z,985.08
2019-01-30T04:44:05.832Z,985.06
2019-01-30T04:45:05.809Z,985.03
2019-01-30T04:46:05.792Z,985.07
2019-01-30T04:47:05.764Z,985.05
2019-01-30T04:48:05.755Z,985.05
2019-01-30T04:49:05.724Z,985.04
2019-01-30T04:50:05.706Z,985.05
2019-01-30T04:51:05.669Z,984.99
2019-01-30T04:52:05.641Z,984.97
2019-01-30T04:53:05.643Z,984.96
2019-01-30T04:54:05.592Z,984.97
2019-01-30T04:55:05.569Z,984.94
2019-01-30T04:56:05.545Z,984.99
2019-01-30T04:57:05.521Z,984.93
2019-01-30T04:58:05.500Z,984.91
2019-01-30T04:59:05.472Z,984.93
2019-01-30T05:00:05.450Z,984.92
2019-01-30T05:01:05.428Z,984.91
2019-01-30T05:02:05.413Z,984.86
2019-01-30T05:03:05.376Z,984.87
2019-01-30T05:04:05.351Z,984.88
2019-01-30T05:05:05.326Z,984.9
2019-01-30T05:06:05.302Z,984.88
2019-01-30T05:07:05.282Z,984.86
2019-01-30T05:08:05.459Z,984.83
2019-01-30T05:09:05.231Z,984.8
2019-01-30T05:10:05.207Z,984.77
2019-01-30T05:11:05.181Z,984.81
2019-01-30T05:12:05.160Z,984.83
2019-01-30T05:13:05.135Z,984.82
2019-01-30T05:14:05.112Z,984.81
2019-01-30T05:15:05.087Z,984.78
2019-01-30T05:16:05.067Z,984.78
2019-01-30T05:17:05.039Z,984.76
2019-01-30T05:18:05.021Z,984.75
2019-01-30T05:19:04.989Z,984.72
2019-01-30T05:20:04.966Z,984.75
2019-01-30T05:21:04.943Z,984.73
2019-01-30T05:22:04.917Z,984.73
2019-01-30T05:23:04.893Z,984.72
2019-01-30T05:24:04.867Z,984.68
2019-01-30T05:25:04.846Z,984.67
2019-01-30T05:26:04.820Z,984.7
2019-01-30T05:27:04.795Z,984.68
2019-01-30T05:28:04.771Z,984.67
2019-01-30T05:29:04.747Z,984.67
2019-01-30T05:30:04.724Z,984.64
2019-01-30T05:31:04.700Z,984.61
2019-01-30T05:32:04.674Z,984.61
2019-01-30T05:33:04.655Z,984.63
2019-01-30T05:34:04.627Z,984.61
2019-01-30T05:35:04.609Z,984.57
2019-01-30T05:36:04.587Z,984.55
2019-01-30T05:37:04.556Z,984.53
2019-01-30T05:38:04.536Z,984.56
2019-01-30T05:39:04.506Z,984.53
2019-01-30T05:40:04.482Z,984.56
2019-01-30T05:41:04.459Z,984.51
2019-01-30T05:42:04.440Z,984.5
2019-01-30T05:43:04.411Z,984.51
2019-01-30T05:44:04.385Z,984.5
2019-01-30T05:45:04.362Z,984.5
2019-01-30T05:46:04.339Z,984.47
2019-01-30T05:47:04.313Z,984.49
2019-01-30T05:48:04.291Z,984.47
2019-01-30T05:49:04.266Z,984.49
2019-01-30T05:50:04.240Z,984.46
2019-01-30T05:51:04.216Z,984.47
2019-01-30T05:52:04.194Z,984.48
2019-01-30T05:53:04.181Z,984.48
2019-01-30T05:54:04.145Z,984.45
2019-01-30T05:55:04.120Z,984.44
2019-01-30T05:56:04.097Z,984.46
2019-01-30T05:57:04.073Z,984.45
2019-01-30T05:58:04.049Z,984.4
2019-01-30T05:59:04.026Z,984.4
2019-01-30T06:00:04.001Z,984.4
2019-01-30T06:01:03.975Z,984.4
2019-01-30T06:02:11.761Z,984.42
2019-01-30T06:03:03.935Z,984.4
2019-01-30T06:04:03.905Z,984.46
2019-01-30T06:05:03.881Z,984.41
2019-01-30T06:06:03.855Z,984.44
2019-01-30T06:07:03.831Z,984.42
2019-01-30T06:08:03.809Z,984.4
2019-01-30T06:09:03.783Z,984.39
2019-01-30T06:10:03.759Z,984.4
2019-01-30T06:11:03.736Z,984.41
2019-01-30T06:12:03.710Z,984.41
2019-01-30T06:13:03.685Z,984.44
2019-01-30T06:14:03.664Z,984.46
2019-01-30T06:15:03.640Z,984.48
2019-01-30T06:16:03.614Z,984.45
2019-01-30T06:17:03.590Z,984.47
2019-01-30T06:18:03.565Z,984.44
2019-01-30T06:19:03.541Z,984.44
2019-01-30T06:20:03.518Z,984.46
2019-01-30T06:21:03.492Z,984.45
2019-01-30T06:22:03.475Z,984.4
2019-01-30T06:23:03.447Z,984.38
2019-01-30T06:24:03.422Z,984.38
2019-01-30T06:25:03.397Z,984.37
2019-01-30T06:26:03.373Z,984.36
2019-01-30T06:27:03.363Z,984.42
2019-01-30T06:28:03.331Z,984.38
2019-01-30T06:29:03.304Z,984.39
2019-01-30T06:30:03.276Z,984.42
2019-01-30T06:31:03.259Z,984.39
2019-01-30T06:32:03.265Z,984.4
2019-01-30T06:33:03.227Z,984.35
2019-01-30T06:34:03.185Z,984.36
2019-01-30T06:35:03.158Z,984.32
2019-01-30T06:36:03.134Z,984.26
2019-01-30T06:37:03.110Z,984.3
2019-01-30T06:38:03.093Z,984.26
2019-01-30T06:39:03.064Z,984.26
2019-01-30T06:40:03.037Z,984.23
2019-01-30T06:41:03.013Z,984.23
2019-01-30T06:42:02.992Z,984.22
2019-01-30T06:43:03.039Z,984.2
2019-01-30T06:44:02.944Z,984.19
2019-01-30T06:45:02.918Z,984.17
2019-01-30T06:46:02.893Z,984.16
2019-01-30T06:47:02.875Z,984.12
2019-01-30T06:48:02.845Z,984.12
2019-01-30T06:49:02.860Z,984.11
2019-01-30T06:50:02.809Z,984.13
2019-01-30T06:51:02.772Z,984.16
2019-01-30T06:52:02.750Z,984.19
2019-01-30T06:53:02.728Z,984.21
2019-01-30T06:54:02.704Z,984.22
2019-01-30T06:55:02.677Z,984.17
2019-01-30T06:56:02.654Z,984.17
2019-01-30T06:57:02.630Z,984.13
2019-01-30T06:58:02.620Z,984.14
2019-01-30T06:59:02.582Z,984.12
2019-01-30T07:00:02.562Z,984.15
2019-01-30T07:01:02.536Z,984.11
2019-01-30T07:02:02.513Z,984.15
2019-01-30T07:03:02.485Z,984.21
2019-01-30T07:04:02.460Z,984.18
2019-01-30T07:05:02.438Z,984.22
2019-01-30T07:06:02.416Z,984.22
2019-01-30T07:07:02.390Z,984.16
2019-01-30T07:08:02.568Z,984.11
2019-01-30T07:09:02.341Z,984.13
2019-01-30T07:10:02.320Z,984.06
2019-01-30T07:11:10.281Z,984.08
2019-01-30T07:12:02.275Z,984.07
2019-01-30T07:13:02.247Z,984.06
2019-01-30T07:14:02.222Z,984.08
2019-01-30T07:15:02.202Z,984.04
2019-01-30T07:16:02.174Z,984.04
2019-01-30T07:17:02.151Z,983.99
2019-01-30T07:18:02.132Z,984.02
2019-01-30T07:19:02.103Z,983.96
2019-01-30T07:20:02.080Z,983.95
2019-01-30T07:21:02.055Z,983.89
2019-01-30T07:22:02.030Z,983.92
2019-01-30T07:23:02.006Z,983.99
2019-01-30T07:24:01.984Z,983.95
2019-01-30T07:25:01.963Z,983.98
2019-01-30T07:26:01.942Z,983.97
2019-01-30T07:27:01.913Z,983.96
2019-01-30T07:28:01.886Z,984
2019-01-30T07:29:01.864Z,983.99
2019-01-30T07:30:01.843Z,984.03
2019-01-30T07:31:01.814Z,984
2019-01-30T07:32:01.790Z,984.02
2019-01-30T07:33:01.768Z,984.05
2019-01-30T07:34:01.743Z,984.04
2019-01-30T07:35:01.719Z,984.07
2019-01-30T07:36:01.694Z,984.08
2019-01-30T07:37:01.682Z,984.06
2019-01-30T07:38:01.650Z,984.11
2019-01-30T07:39:01.623Z,984.04
2019-01-30T07:40:01.600Z,984.1
2019-01-30T07:41:01.575Z,984.11
2019-01-30T07:42:01.551Z,984.13
2019-01-30T07:43:01.525Z,984.17
2019-01-30T07:44:01.505Z,984.15
2019-01-30T07:45:01.480Z,984.17
2019-01-30T07:46:01.456Z,984.2
2019-01-30T07:47:01.449Z,984.17
2019-01-30T07:48:01.408Z,984.17
2019-01-30T07:49:01.384Z,984.17
2019-01-30T07:50:01.360Z,984.15
2019-01-30T07:51:01.336Z,984.13
2019-01-30T07:52:01.311Z,984.12
2019-01-30T07:53:01.289Z,984.09
2019-01-30T07:54:01.264Z,984.08
2019-01-30T07:55:01.242Z,984.08
2019-01-30T07:56:01.222Z,984.05
2019-01-30T07:57:01.194Z,984.03
2019-01-30T07:58:01.168Z,984.04
2019-01-30T07:59:01.144Z,984.04
2019-01-30T08:00:01.123Z,984.05
2019-01-30T08:01:01.097Z,984.07
2019-01-30T08:02:01.075Z,984.07
2019-01-30T08:03:01.049Z,984.08
2019-01-30T08:04:01.028Z,984.11
2019-01-30T08:05:01.002Z,984.07
2019-01-30T08:06:00.978Z,984.09
2019-01-30T08:07:03.041Z,984.12
2019-01-30T08:08:00.938Z,984.14
2019-01-30T08:09:00.907Z,984.11
2019-01-30T08:10:00.885Z,984.1
2019-01-30T08:11:00.859Z,984.13
2019-01-30T08:12:00.840Z,984.08
2019-01-30T08:13:00.813Z,984.06
2019-01-30T08:14:01.858Z,984.13
2019-01-30T08:15:00.781Z,984.12
2019-01-30T08:16:00.741Z,984.15
2019-01-30T08:17:00.719Z,984.14
2019-01-30T08:18:00.698Z,984.12
2019-01-30T08:19:00.670Z,984.11
2019-01-30T08:20:00.849Z,984.14
2019-01-30T08:21:00.625Z,984.13
2019-01-30T08:22:00.599Z,984.13
2019-01-30T08:23:00.687Z,984.14
2019-01-30T08:24:00.785Z,984.11
2019-01-30T08:25:00.688Z,984.16
2019-01-30T08:26:00.642Z,984.15
2019-01-30T08:27:00.768Z,984.08
2019-01-30T08:28:00.501Z,984.08
2019-01-30T08:29:00.817Z,984.09
2019-01-30T08:30:00.615Z,984.07
2019-01-30T08:31:00.710Z,984.08
2019-01-30T08:32:00.615Z,984.05
2019-01-30T08:33:04.396Z,984.08
2019-01-30T08:34:00.317Z,984.06
2019-01-30T08:35:00.294Z,984.04
2019-01-30T08:36:00.269Z,984.05
2019-01-30T08:37:00.249Z,984.04
2019-01-30T08:38:00.234Z,984.03
2019-01-30T08:39:00.198Z,984.07
2019-01-30T08:40:00.189Z,984.08
2019-01-30T08:41:00.152Z,984.08
2019-01-30T08:42:00.129Z,984.08
2019-01-30T08:43:00.107Z,984.07
2019-01-30T08:44:00.084Z,984.08
2019-01-30T08:45:00.106Z,984.11
2019-01-30T08:46:00.036Z,984.07
2019-01-30T08:47:00.013Z,984.08
2019-01-30T08:47:59.988Z,984.08
2019-01-30T08:48:59.967Z,984.06
2019-01-30T08:49:59.941Z,984.02
2019-01-30T08:50:59.918Z,984.08
2019-01-30T08:51:59.896Z,984.03
2019-01-30T08:52:59.878Z,984.04
2019-01-30T08:53:59.850Z,984.04
2019-01-30T08:54:59.829Z,984.02
2019-01-30T08:55:59.802Z,984.03
2019-01-30T08:56:59.780Z,984.05
2019-01-30T08:57:59.755Z,984.01
2019-01-30T08:58:59.735Z,984.03
2019-01-30T08:59:59.710Z,984
2019-01-30T09:00:59.688Z,984.02
2019-01-30T09:01:59.663Z,984.04
2019-01-30T09:02:59.650Z,984.01
2019-01-30T09:03:59.619Z,983.98
2019-01-30T09:04:59.594Z,983.98
2019-01-30T09:05:59.574Z,984.01
2019-01-30T09:06:59.548Z,984.02
2019-01-30T09:07:59.731Z,984
2019-01-30T09:08:59.503Z,983.99
2019-01-30T09:09:59.478Z,984
2019-01-30T09:10:59.456Z,984.04
2019-01-30T09:11:59.437Z,984.04
2019-01-30T09:12:59.410Z,984.06
2019-01-30T09:13:59.387Z,984.03
2019-01-30T09:14:59.369Z,984.05
2019-01-30T09:15:59.342Z,984.03
2019-01-30T09:16:59.320Z,984.03
2019-01-30T09:17:59.296Z,984.04
2019-01-30T09:19:00.406Z,984.06
2019-01-30T09:19:59.249Z,984.05
2019-01-30T09:20:59.226Z,984.04
2019-01-30T09:21:59.203Z,984.04
2019-01-30T09:22:59.180Z,984.09
2019-01-30T09:23:59.185Z,984.09
2019-01-30T09:24:59.133Z,984.06
2019-01-30T09:25:59.113Z,984.07
2019-01-30T09:26:59.091Z,984.06
2019-01-30T09:27:59.065Z,984.08
2019-01-30T09:28:59.047Z,984.06
2019-01-30T09:29:59.021Z,983.99
2019-01-30T09:30:58.997Z,984.01
2019-01-30T09:31:58.977Z,984.03
2019-01-30T09:32:58.961Z,984.07
2019-01-30T09:33:58.958Z,984.05
2019-01-30T09:34:58.938Z,984.03
2019-01-30T09:35:58.897Z,984.05
2019-01-30T09:36:58.861Z,984
2019-01-30T09:37:58.836Z,983.99
2019-01-30T09:38:58.834Z,984
2019-01-30T09:39:58.841Z,984
2019-01-30T09:40:58.766Z,983.98
2019-01-30T09:41:58.742Z,983.96
2019-01-30T09:42:58.721Z,983.94
2019-01-30T09:43:58.701Z,983.94
2019-01-30T09:44:58.678Z,983.95
2019-01-30T09:45:58.653Z,983.98
2019-01-30T09:46:58.629Z,984
2019-01-30T09:47:58.632Z,983.94
2019-01-30T09:48:58.587Z,983.98
2019-01-30T09:49:58.560Z,984.02
2019-01-30T09:50:58.536Z,983.96
2019-01-30T09:51:58.520Z,983.96
2019-01-30T09:52:58.585Z,983.99
2019-01-30T09:53:58.509Z,983.99
2019-01-30T09:54:58.511Z,983.99
2019-01-30T09:55:58.421Z,983.99
2019-01-30T09:56:58.399Z,983.99
2019-01-30T09:57:58.377Z,983.99
2019-01-30T09:58:58.353Z,983.98
2019-01-30T09:59:58.334Z,983.99
2019-01-30T10:00:58.312Z,984.02
2019-01-30T10:01:58.291Z,984.01
2019-01-30T10:02:58.268Z,984.02
2019-01-30T10:03:58.238Z,984.03
2019-01-30T10:04:58.214Z,984.02
2019-01-30T10:05:58.192Z,984.04
2019-01-30T10:06:58.172Z,984.01
2019-01-30T10:07:58.157Z,984.04
2019-01-30T10:08:58.151Z,984.04
2019-01-30T10:09:58.102Z,984.03
2019-01-30T10:10:58.080Z,984.01
2019-01-30T10:11:58.056Z,984
2019-01-30T10:12:58.090Z,984.02
2019-01-30T10:13:58.009Z,983.97
2019-01-30T10:14:57.985Z,983.97
2019-01-30T10:15:57.978Z,983.98
2019-01-30T10:16:57.942Z,983.99
2019-01-30T10:17:57.916Z,983.97
2019-01-30T10:18:57.897Z,984
2019-01-30T10:19:57.872Z,984.01
2019-01-30T10:20:57.850Z,983.98
2019-01-30T10:21:57.824Z,984
2019-01-30T10:22:57.809Z,983.96
2019-01-30T10:23:57.778Z,983.98
2019-01-30T10:24:57.765Z,983.98
2019-01-30T10:25:57.732Z,983.97
2019-01-30T10:26:57.709Z,984.03
2019-01-30T10:27:57.687Z,984.04
2019-01-30T10:28:57.665Z,984.09
2019-01-30T10:29:58.806Z,984.06
2019-01-30T10:30:57.617Z,984.08
2019-01-30T10:31:57.596Z,984.05
2019-01-30T10:32:57.574Z,984.04
2019-01-30T10:33:57.546Z,984.05
2019-01-30T10:34:57.525Z,984.05
2019-01-30T10:35:57.502Z,984.01
2019-01-30T10:36:57.480Z,984.03
2019-01-30T10:37:57.455Z,984.07
2019-01-30T10:38:57.438Z,984.03
2019-01-30T10:39:57.415Z,984.03
2019-01-30T10:40:57.389Z,984.04
2019-01-30T10:41:57.366Z,984.04
2019-01-30T10:42:57.634Z,984.07
2019-01-30T10:43:57.319Z,984.05
2019-01-30T10:44:57.295Z,984.04
2019-01-30T10:45:57.275Z,984.07
2019-01-30T10:46:57.254Z,984.05
2019-01-30T10:47:57.227Z,984.06
2019-01-30T10:48:57.206Z,984.06
2019-01-30T10:49:57.183Z,984.06
2019-01-30T10:50:57.160Z,984.08
2019-01-30T10:51:57.138Z,984.08
2019-01-30T10:52:57.113Z,984.06
2019-01-30T10:53:57.089Z,984.02
2019-01-30T10:54:57.066Z,984.02
2019-01-30T10:55:57.044Z,984.01
2019-01-30T10:56:57.020Z,984
2019-01-30T10:57:56.997Z,984.04
2019-01-30T10:58:56.975Z,984.03
2019-01-30T10:59:56.954Z,984.04
2019-01-30T11:00:56.929Z,984.03
2019-01-30T11:01:56.910Z,984.07
2019-01-30T11:02:56.881Z,984.04
2019-01-30T11:03:57.655Z,984.04
2019-01-30T11:04:56.837Z,984.04
2019-01-30T11:05:56.815Z,983.99
2019-01-30T11:06:56.793Z,983.98
2019-01-30T11:07:56.770Z,983.99
2019-01-30T11:08:56.747Z,983.98
2019-01-30T11:09:56.723Z,984
2019-01-30T11:10:56.705Z,983.96
2019-01-30T11:11:56.680Z,983.99
2019-01-30T11:12:56.656Z,983.92
2019-01-30T11:13:56.634Z,983.96
2019-01-30T11:14:56.611Z,983.94
2019-01-30T11:15:56.591Z,983.91
2019-01-30T11:16:56.565Z,983.92
2019-01-30T11:17:56.541Z,983.94
2019-01-30T11:18:56.518Z,983.94
2019-01-30T11:19:56.498Z,983.92
2019-01-30T11:20:56.478Z,983.93
2019-01-30T11:21:56.451Z,983.93
2019-01-30T11:22:56.429Z,983.85
2019-01-30T11:23:56.406Z,983.85
2019-01-30T11:24:56.382Z,983.85
2019-01-30T11:25:57.015Z,983.8
2019-01-30T11:26:56.338Z,983.73
2019-01-30T11:27:56.317Z,983.82
2019-01-30T11:28:56.300Z,983.8
2019-01-30T11:29:56.272Z,983.81
2019-01-30T11:30:56.250Z,983.75
2019-01-30T11:31:56.230Z,983.78
2019-01-30T11:32:56.206Z,983.74
2019-01-30T11:33:56.184Z,983.75
2019-01-30T11:34:56.160Z,983.75
2019-01-30T11:35:56.139Z,983.77
2019-01-30T11:36:56.117Z,983.82
2019-01-30T11:37:56.093Z,983.77
2019-01-30T11:38:56.071Z,983.76
2019-01-30T11:39:56.096Z,983.79
2019-01-30T11:40:56.037Z,983.82
2019-01-30T11:41:56.029Z,983.76
2019-01-30T11:42:55.980Z,983.75
2019-01-30T11:43:55.959Z,983.77
2019-01-30T11:44:55.937Z,983.76
2019-01-30T11:45:55.920Z,983.75
2019-01-30T11:46:55.895Z,983.73
2019-01-30T11:47:55.871Z,983.72
2019-01-30T11:48:56.544Z,983.76
2019-01-30T11:49:55.826Z,983.72
2019-01-30T11:50:55.802Z,983.77
2019-01-30T11:51:55.783Z,983.71
2019-01-30T11:52:55.756Z,983.73
2019-01-30T11:53:55.735Z,983.74
2019-01-30T11:54:55.713Z,983.69
2019-01-30T11:55:55.690Z,983.74
2019-01-30T11:56:55.669Z,983.74
2019-01-30T11:57:55.645Z,983.72
2019-01-30T11:58:55.637Z,983.74
2019-01-30T11:59:55.601Z,983.7
2019-01-30T12:00:55.578Z,983.71
2019-01-30T12:01:55.555Z,983.65
2019-01-30T12:02:55.540Z,983.72
2019-01-30T12:03:55.509Z,983.66
2019-01-30T12:04:55.492Z,983.68
2019-01-30T12:05:55.465Z,983.68
2019-01-30T12:06:55.444Z,983.68
2019-01-30T12:07:55.425Z,983.66
2019-01-30T12:08:55.469Z,983.62
2019-01-30T12:09:55.902Z,983.63
2019-01-30T12:10:55.354Z,983.67
2019-01-30T12:11:55.330Z,983.65
2019-01-30T12:12:55.308Z,983.65
2019-01-30T12:13:55.294Z,983.66
2019-01-30T12:14:55.262Z,983.65
2019-01-30T12:15:55.241Z,983.65
2019-01-30T12:16:55.220Z,983.62
2019-01-30T12:17:55.194Z,983.65
2019-01-30T12:18:55.175Z,983.63
2019-01-30T12:19:55.154Z,983.62
2019-01-30T12:20:55.133Z,983.63
2019-01-30T12:21:55.109Z,983.6
2019-01-30T12:22:55.082Z,983.61
2019-01-30T12:23:55.059Z,983.6
2019-01-30T12:24:55.038Z,983.6
2019-01-30T12:25:55.018Z,983.58
2019-01-30T12:26:54.993Z,983.56
2019-01-30T12:27:54.972Z,983.54
2019-01-30T12:28:54.949Z,983.52
2019-01-30T12:29:54.930Z,983.53
2019-01-30T12:30:54.904Z,983.52